Time;durP1;ratioP1;P1;durP2;ratioP2;P2;SDS_P1;SDS_P2;PMS_P1;PMS_P2;Temp;Humidity;BMP_temperature;BMP_pressure;BME280_temperature;BME280_humidity;BME280_pressure;Samples;Min_cycle;Max_cycle;Signal;HPM_P1;HPM_P2
2024/01/17 00:00:23;;;;;;;4.13;2.83;;;8.50;75.00;;;;;;5026365;28;20042;-70
2024/01/17 00:02:49;;;;;;;4.65;3.25;;;8.50;75.70;;;;;;5029672;28;20136;-70
2024/01/17 00:05:15;;;;;;;7.47;3.53;;;8.50;75.00;;;;;;5013122;28;20049;-70
2024/01/17 00:07:40;;;;;;;7.75;3.38;;;8.50;74.90;;;;;;5030690;28;20429;-70
2024/01/17 00:10:07;;;;;;;5.05;3.60;;;8.50;74.80;;;;;;5028107;28;20064;-70
2024/01/17 00:12:33;;;;;;;5.63;3.67;;;8.50;74.90;;;;;;5013341;28;20042;-70
2024/01/17 00:14:58;;;;;;;6.35;3.72;;;8.50;74.90;;;;;;5030030;28;20378;-70
2024/01/17 00:17:24;;;;;;;4.50;3.30;;;8.50;74.80;;;;;;5013215;28;20092;-70
2024/01/17 00:19:50;;;;;;;4.88;3.47;;;8.50;74.80;;;;;;5027840;28;20041;-70
2024/01/17 00:22:16;;;;;;;6.18;3.42;;;8.50;74.80;;;;;;5012979;28;20033;-70
2024/01/17 00:24:42;;;;;;;5.53;3.95;;;8.50;74.80;;;;;;5029345;28;20037;-70
2024/01/17 00:27:08;;;;;;;5.78;3.72;;;8.50;74.80;;;;;;5028579;28;20064;-70
2024/01/17 00:29:34;;;;;;;4.47;3.50;;;8.50;74.80;;;;;;5030613;28;20073;-70
2024/01/17 00:32:01;;;;;;;5.20;3.95;;;8.40;74.70;;;;;;5012297;28;20040;-70
2024/01/17 00:34:26;;;;;;;4.05;3.47;;;8.50;74.80;;;;;;5029598;28;20519;-70
2024/01/17 00:36:52;;;;;;;4.60;3.53;;;8.50;74.80;;;;;;5029067;28;20069;-70
2024/01/17 00:39:18;;;;;;;5.78;4.03;;;8.50;74.70;;;;;;5024440;28;20080;-70
2024/01/17 00:41:45;;;;;;;4.25;3.78;;;8.50;74.70;;;;;;5027929;28;20463;-70
2024/01/17 00:44:14;;;;;;;5.30;3.60;;;8.40;74.60;;;;;;5028828;28;20408;-70
2024/01/17 00:46:40;;;;;;;9.23;4.55;;;8.40;74.60;;;;;;5030115;28;20519;-70
2024/01/17 00:49:06;;;;;;;5.53;4.25;;;8.40;74.60;;;;;;5029420;28;20065;-70
2024/01/17 00:51:32;;;;;;;6.40;3.92;;;8.40;74.50;;;;;;5029027;28;20143;-70
2024/01/17 00:53:57;;;;;;;6.82;4.30;;;8.40;74.40;;;;;;5028012;28;20037;-70
2024/01/17 00:56:23;;;;;;;6.75;3.92;;;8.40;74.50;;;;;;5010409;28;20049;-70
2024/01/17 00:58:49;;;;;;;6.07;4.45;;;8.40;74.50;;;;;;5028405;28;20536;-70
2024/01/17 01:01:15;;;;;;;8.23;4.60;;;8.40;74.50;;;;;;5029228;28;20544;-70
2024/01/17 01:03:40;;;;;;;6.60;4.38;;;8.40;74.30;;;;;;5028061;28;20038;-70
2024/01/17 01:06:06;;;;;;;7.10;5.32;;;8.40;74.40;;;;;;5025968;28;20041;-70
2024/01/17 01:08:31;;;;;;;6.70;4.80;;;8.40;74.30;;;;;;5028673;28;20041;-70
2024/01/17 01:10:57;;;;;;;8.50;4.88;;;8.40;74.30;;;;;;5029740;28;20128;-70
2024/01/17 01:13:23;;;;;;;6.05;4.68;;;8.30;74.20;;;;;;5012229;28;20438;-70
2024/01/17 01:15:49;;;;;;;7.35;5.28;;;8.40;74.30;;;;;;5028031;28;20044;-70
2024/01/17 01:18:15;;;;;;;6.72;4.82;;;8.40;74.30;;;;;;5023268;28;20124;-70
2024/01/17 01:20:41;;;;;;;8.27;5.65;;;8.30;74.20;;;;;;5027327;28;20041;-70
2024/01/17 01:23:07;;;;;;;7.32;5.90;;;8.30;74.10;;;;;;5012376;28;20033;-70
2024/01/17 01:25:33;;;;;;;8.77;5.38;;;8.30;73.90;;;;;;5011393;28;20041;-70
2024/01/17 01:27:58;;;;;;;7.07;4.72;;;8.30;74.00;;;;;;5012451;28;20065;-70
2024/01/17 01:30:24;;;;;;;5.80;5.00;;;8.30;73.90;;;;;;5012537;28;20068;-70
2024/01/17 01:32:49;;;;;;;7.30;5.28;;;8.30;73.80;;;;;;5028373;28;20067;-70
2024/01/17 01:35:15;;;;;;;9.40;6.20;;;8.30;73.80;;;;;;5011497;28;20431;-70
2024/01/17 01:37:41;;;;;;;8.48;5.47;;;8.30;73.80;;;;;;5010264;28;20561;-70
2024/01/17 01:40:07;;;;;;;7.88;5.40;;;8.30;73.70;;;;;;4995566;28;20045;-70
2024/01/17 01:42:34;;;;;;;7.68;5.35;;;8.20;73.50;;;;;;4995774;28;20047;-70
2024/01/17 01:45:00;;;;;;;8.48;5.88;;;8.20;74.30;;;;;;4979080;28;20041;-70
2024/01/17 01:47:26;;;;;;;7.53;5.82;;;8.20;73.60;;;;;;5011529;28;20036;-70
2024/01/17 01:49:51;;;;;;;9.25;5.93;;;8.20;73.50;;;;;;5012196;28;20045;-70
2024/01/17 01:52:17;;;;;;;9.10;6.13;;;8.20;73.50;;;;;;5009812;28;20042;-70
2024/01/17 01:54:43;;;;;;;8.68;6.25;;;8.20;73.50;;;;;;4988682;28;20124;-70
2024/01/17 01:57:08;;;;;;;8.43;6.60;;;8.10;73.40;;;;;;5011760;28;20469;-70
2024/01/17 01:59:34;;;;;;;7.75;5.85;;;8.10;73.30;;;;;;5011355;28;20091;-70
2024/01/17 02:02:00;;;;;;;7.82;6.28;;;8.10;73.40;;;;;;5010641;28;20045;-70
2024/01/17 02:04:26;;;;;;;8.88;6.55;;;8.10;73.30;;;;;;5030340;28;20043;-70
2024/01/17 02:06:52;;;;;;;6.82;5.88;;;8.10;73.30;;;;;;5016704;28;20037;-70
2024/01/17 02:09:17;;;;;;;6.88;5.97;;;8.10;73.40;;;;;;5016659;28;20045;-70
2024/01/17 02:11:43;;;;;;;8.88;6.20;;;8.10;73.40;;;;;;4983639;28;20082;-70
2024/01/17 02:14:09;;;;;;;10.63;6.57;;;8.10;73.50;;;;;;5013988;28;20038;-70
2024/01/17 02:16:35;;;;;;;9.18;6.95;;;8.10;73.50;;;;;;4996327;28;20038;-70
2024/01/17 02:19:00;;;;;;;8.88;6.45;;;8.10;73.50;;;;;;4977903;28;20210;-70
2024/01/17 02:21:26;;;;;;;8.80;6.85;;;8.00;73.40;;;;;;5015185;28;20045;-70
2024/01/17 02:23:52;;;;;;;10.82;6.88;;;8.10;73.50;;;;;;5030510;28;20520;-70
2024/01/17 02:26:18;;;;;;;8.70;6.80;;;8.10;73.50;;;;;;5012387;28;20041;-70
2024/01/17 02:28:44;;;;;;;9.35;6.93;;;8.00;73.50;;;;;;5012358;28;20037;-70
2024/01/17 02:31:10;;;;;;;10.60;6.45;;;8.10;73.60;;;;;;5012857;28;20120;-70
2024/01/17 02:33:36;;;;;;;8.90;6.75;;;8.10;73.60;;;;;;5013202;28;20485;-70
2024/01/17 02:36:02;;;;;;;10.82;7.32;;;8.10;73.60;;;;;;5012582;28;20041;-70
2024/01/17 02:38:28;;;;;;;8.85;7.25;;;8.10;74.40;;;;;;4998764;28;20034;-70
2024/01/17 02:40:54;;;;;;;12.82;8.43;;;8.00;73.60;;;;;;5015119;28;20091;-70
2024/01/17 02:43:19;;;;;;;9.45;6.63;;;8.10;73.70;;;;;;5015940;28;20040;-70
2024/01/17 02:45:45;;;;;;;8.65;7.53;;;8.10;73.80;;;;;;4982775;28;20045;-70
2024/01/17 02:48:11;;;;;;;8.93;6.95;;;8.10;73.80;;;;;;4983342;28;20041;-70
2024/01/17 02:50:36;;;;;;;8.55;7.10;;;8.10;73.90;;;;;;5013259;28;20065;-70
2024/01/17 02:53:02;;;;;;;8.68;6.95;;;8.10;73.80;;;;;;4999633;28;20038;-70
2024/01/17 02:55:27;;;;;;;8.70;6.50;;;8.00;73.60;;;;;;5014795;28;20052;-70
2024/01/17 02:57:53;;;;;;;9.57;7.00;;;8.10;73.70;;;;;;5032203;28;20041;-70
2024/01/17 03:00:19;;;;;;;10.75;7.72;;;8.10;73.70;;;;;;5029924;28;20447;-70
2024/01/17 03:02:45;;;;;;;10.63;7.03;;;8.10;73.70;;;;;;4998715;28;20420;-70
2024/01/17 03:05:11;;;;;;;9.00;6.70;;;8.10;73.70;;;;;;4982453;28;20041;-70
2024/01/17 03:07:36;;;;;;;7.53;6.78;;;8.10;73.60;;;;;;5031790;28;20038;-70
2024/01/17 03:10:02;;;;;;;8.18;7.15;;;8.00;73.50;;;;;;5015082;28;20442;-70
2024/01/17 03:12:28;;;;;;;9.55;7.93;;;8.00;73.60;;;;;;5010194;28;20046;-70
2024/01/17 03:14:53;;;;;;;9.90;7.00;;;8.00;73.50;;;;;;5029552;28;20045;-70
2024/01/17 03:17:19;;;;;;;11.00;6.82;;;8.00;73.40;;;;;;4998578;28;20045;-70
2024/01/17 03:19:46;;;;;;;8.98;6.78;;;8.00;73.50;;;;;;4997422;28;20075;-70
2024/01/17 03:22:17;;;;;;;8.77;6.88;;;8.00;73.50;;;;;;5013359;28;20576;-70
2024/01/17 03:24:45;;;;;;;9.93;6.75;;;8.00;73.50;;;;;;4997372;28;20037;-70
2024/01/17 03:27:12;;;;;;;9.00;6.47;;;8.00;73.50;;;;;;5013954;28;20029;-70
2024/01/17 03:29:37;;;;;;;8.50;6.97;;;8.00;73.50;;;;;;5014621;28;20083;-70
2024/01/17 03:32:03;;;;;;;8.80;7.47;;;8.00;73.50;;;;;;5013134;28;20065;-70
2024/01/17 03:34:29;;;;;;;8.88;7.32;;;8.00;73.50;;;;;;5011914;28;20076;-70
2024/01/17 03:36:54;;;;;;;8.80;6.22;;;8.00;73.50;;;;;;5009662;28;20045;-70
2024/01/17 03:39:21;;;;;;;10.70;7.28;;;8.00;73.70;;;;;;5011469;28;20042;-70
2024/01/17 03:41:46;;;;;;;9.57;6.43;;;8.00;73.70;;;;;;5042888;28;20080;-70
2024/01/17 03:44:12;;;;;;;7.38;6.28;;;8.10;73.70;;;;;;5010368;28;20065;-70
2024/01/17 03:46:37;;;;;;;9.85;7.05;;;8.00;73.70;;;;;;5028077;28;20044;-70
2024/01/17 03:49:03;;;;;;;7.32;5.78;;;8.00;73.70;;;;;;4998657;28;20084;-70
2024/01/17 03:51:29;;;;;;;8.93;6.20;;;8.00;73.70;;;;;;4981744;28;20040;-70
2024/01/17 03:53:54;;;;;;;9.75;6.68;;;8.00;73.80;;;;;;5011191;28;20037;-70
2024/01/17 03:56:20;;;;;;;8.20;6.50;;;8.00;73.70;;;;;;5009718;28;21411;-70
2024/01/17 03:58:45;;;;;;;10.32;7.53;;;8.00;73.80;;;;;;5013277;28;20045;-70
2024/01/17 04:01:11;;;;;;;8.20;6.50;;;8.00;73.80;;;;;;5011383;28;20037;-70
2024/01/17 04:03:37;;;;;;;8.77;6.65;;;8.00;73.80;;;;;;5011465;28;20073;-70
2024/01/17 04:06:03;;;;;;;7.65;6.85;;;8.00;73.70;;;;;;5013003;28;20046;-70
2024/01/17 04:08:29;;;;;;;7.78;6.03;;;8.00;73.60;;;;;;5046033;28;20033;-70
2024/01/17 04:10:55;;;;;;;7.82;6.13;;;8.00;73.60;;;;;;5013656;28;20049;-70
2024/01/17 04:13:20;;;;;;;8.55;6.00;;;8.00;73.50;;;;;;5009916;28;20506;-70
2024/01/17 04:15:46;;;;;;;8.05;6.55;;;8.00;73.70;;;;;;5012908;28;20044;-70
2024/01/17 04:18:12;;;;;;;6.80;5.82;;;8.00;73.60;;;;;;4980901;28;20075;-70
2024/01/17 04:20:37;;;;;;;7.68;6.13;;;8.00;73.50;;;;;;5010773;28;20038;-70
2024/01/17 04:23:06;;;;;;;10.00;6.60;;;8.00;73.50;;;;;;4997088;28;20095;-70
2024/01/17 04:25:32;;;;;;;10.07;7.07;;;8.00;73.50;;;;;;5012491;28;20052;-70
2024/01/17 04:27:57;;;;;;;6.97;5.82;;;8.00;73.50;;;;;;5011841;28;20116;-70
2024/01/17 04:30:24;;;;;;;9.73;7.13;;;8.00;73.50;;;;;;5028366;28;20107;-70
2024/01/17 04:32:49;;;;;;;9.32;6.25;;;8.00;73.40;;;;;;5013573;28;20374;-70
2024/01/17 04:35:21;;;;;;;8.00;6.57;;;7.90;73.30;;;;;;4997027;28;20041;-70
2024/01/17 04:37:47;;;;;;;7.85;5.55;;;7.90;73.20;;;;;;5012247;28;20041;-70
2024/01/17 04:40:12;;;;;;;8.80;5.65;;;7.90;73.40;;;;;;5011864;28;20114;-70
2024/01/17 04:42:38;;;;;;;8.88;5.93;;;7.90;73.40;;;;;;4980627;28;20037;-70
2024/01/17 04:45:04;;;;;;;9.68;5.70;;;7.90;73.40;;;;;;4996372;28;20074;-70
2024/01/17 04:47:30;;;;;;;7.53;6.65;;;7.90;73.40;;;;;;4995313;28;20080;-70
2024/01/17 04:49:56;;;;;;;7.13;5.93;;;7.90;73.30;;;;;;5029235;28;20041;-70
2024/01/17 04:52:22;;;;;;;6.53;5.72;;;7.90;73.30;;;;;;5012403;28;20036;-70
2024/01/17 04:54:48;;;;;;;9.10;5.97;;;7.90;73.30;;;;;;4979839;28;20037;-70
2024/01/17 04:57:15;;;;;;;8.00;5.65;;;7.90;73.30;;;;;;5010290;28;20052;-70
2024/01/17 04:59:40;;;;;;;6.72;6.03;;;7.90;73.20;;;;;;5012086;28;20049;-70
2024/01/17 05:02:06;;;;;;;9.32;5.82;;;7.90;73.90;;;;;;5007267;28;20108;-70
2024/01/17 05:04:32;;;;;;;9.85;6.00;;;8.00;73.20;;;;;;5011019;28;20394;-70
2024/01/17 05:06:58;;;;;;;8.63;5.72;;;7.90;73.20;;;;;;5013851;28;20045;-70
2024/01/17 05:09:24;;;;;;;9.70;6.10;;;7.90;73.20;;;;;;5006848;28;20557;-70
2024/01/17 05:11:49;;;;;;;6.10;5.20;;;7.90;73.20;;;;;;4993797;28;20069;-70
2024/01/17 05:14:15;;;;;;;6.63;5.85;;;7.90;73.20;;;;;;5011155;28;20041;-70
2024/01/17 05:16:41;;;;;;;8.05;5.68;;;7.90;73.20;;;;;;5009391;28;20041;-70
2024/01/17 05:19:07;;;;;;;7.78;5.35;;;7.90;73.30;;;;;;5008443;28;20033;-70
2024/01/17 05:21:32;;;;;;;8.68;5.60;;;7.80;73.20;;;;;;5008618;28;20637;-70
2024/01/17 05:23:58;;;;;;;6.97;5.70;;;7.90;73.20;;;;;;5022352;28;20041;-70
2024/01/17 05:26:24;;;;;;;9.13;5.55;;;7.80;73.00;;;;;;5011881;28;20029;-70
2024/01/17 05:28:49;;;;;;;7.95;5.40;;;7.80;73.00;;;;;;5012115;28;20038;-70
2024/01/17 05:31:15;;;;;;;9.27;5.82;;;7.80;73.10;;;;;;5012571;28;20052;-70
2024/01/17 05:33:41;;;;;;;7.38;5.53;;;7.80;73.20;;;;;;5012823;28;20512;-70
2024/01/17 05:36:07;;;;;;;11.05;5.53;;;7.80;73.30;;;;;;5006784;28;20033;-70
2024/01/17 05:38:33;;;;;;;5.72;5.22;;;7.80;73.30;;;;;;5013466;28;20409;-70
2024/01/17 05:40:59;;;;;;;8.77;5.68;;;7.80;73.40;;;;;;5015303;28;20060;-70
2024/01/17 05:43:25;;;;;;;7.90;5.00;;;7.90;73.50;;;;;;5016558;28;20041;-70
2024/01/17 05:45:50;;;;;;;6.43;5.28;;;7.80;73.50;;;;;;5015865;28;20509;-70
2024/01/17 05:48:17;;;;;;;5.93;5.18;;;7.80;73.40;;;;;;5029061;28;20038;-70
2024/01/17 05:50:44;;;;;;;7.35;5.40;;;7.90;73.50;;;;;;5063136;28;20504;-70
2024/01/17 05:53:10;;;;;;;5.95;5.32;;;7.80;73.50;;;;;;5032812;28;20048;-70
2024/01/17 05:55:36;;;;;;;5.15;4.65;;;7.90;73.50;;;;;;4984273;28;20153;-70
2024/01/17 05:58:02;;;;;;;6.65;5.05;;;7.90;73.50;;;;;;5012976;28;20056;-70
2024/01/17 06:00:27;;;;;;;5.60;5.10;;;7.80;73.40;;;;;;5014457;28;20045;-70
2024/01/17 06:02:53;;;;;;;7.63;5.65;;;7.90;73.40;;;;;;5011011;28;20125;-70
2024/01/17 06:05:18;;;;;;;8.32;5.50;;;7.90;73.40;;;;;;5012847;28;20501;-70
2024/01/17 06:07:44;;;;;;;8.18;5.32;;;7.90;73.40;;;;;;4980381;28;20124;-70
2024/01/17 06:10:13;;;;;;;6.15;4.75;;;7.80;73.50;;;;;;5016073;28;20061;-70
2024/01/17 06:12:41;;;;;;;6.03;5.05;;;7.90;73.50;;;;;;5032315;28;20041;-70
2024/01/17 06:15:08;;;;;;;7.32;4.88;;;7.90;73.60;;;;;;5015743;28;20068;-70
2024/01/17 06:17:34;;;;;;;11.93;5.72;;;7.80;73.50;;;;;;4999665;28;20042;-70
2024/01/17 06:19:59;;;;;;;7.20;4.95;;;7.90;73.50;;;;;;5015285;28;20051;-70
2024/01/17 06:22:26;;;;;;;7.05;5.68;;;7.90;73.50;;;;;;4998824;28;20045;-70
2024/01/17 06:24:51;;;;;;;7.25;5.25;;;7.90;73.40;;;;;;5015714;28;20037;-70
2024/01/17 06:27:17;;;;;;;6.57;5.20;;;7.90;73.30;;;;;;5013945;28;20080;-70
2024/01/17 06:29:43;;;;;;;6.70;5.90;;;7.80;73.20;;;;;;4997900;28;20103;-70
2024/01/17 06:32:09;;;;;;;7.18;5.65;;;7.80;73.10;;;;;;4999135;28;20040;-70
2024/01/17 06:34:35;;;;;;;7.43;5.35;;;7.80;73.10;;;;;;5014589;28;20041;-70
2024/01/17 06:37:00;;;;;;;6.65;5.50;;;7.80;73.10;;;;;;5014503;28;20037;-70
2024/01/17 06:39:26;;;;;;;8.27;5.40;;;7.80;73.10;;;;;;5019410;28;20043;-70
2024/01/17 06:41:52;;;;;;;7.32;6.55;;;7.80;73.00;;;;;;5010737;28;20149;-70
2024/01/17 06:44:18;;;;;;;6.63;5.72;;;7.90;72.90;;;;;;5011647;28;20034;-70
2024/01/17 06:46:43;;;;;;;6.80;5.38;;;7.80;72.90;;;;;;5012126;28;20486;-70
2024/01/17 06:49:09;;;;;;;8.02;5.13;;;7.80;72.90;;;;;;4992868;28;20033;-70
2024/01/17 06:51:35;;;;;;;6.10;5.43;;;7.80;72.90;;;;;;5011142;28;20037;-70
2024/01/17 06:54:00;;;;;;;7.20;5.90;;;7.80;72.80;;;;;;4998030;28;20037;-70
2024/01/17 06:56:26;;;;;;;7.95;6.47;;;7.70;72.70;;;;;;4999309;28;20034;-70
2024/01/17 06:58:52;;;;;;;7.90;5.63;;;7.80;72.60;;;;;;5006547;28;20153;-70
2024/01/17 07:01:18;;;;;;;9.43;6.70;;;7.70;73.40;;;;;;5018015;28;20061;-70
2024/01/17 07:03:43;;;;;;;8.00;6.30;;;7.70;72.60;;;;;;5010385;28;20049;-70
2024/01/17 07:06:10;;;;;;;7.72;5.97;;;7.70;72.50;;;;;;5012315;28;20044;-70
2024/01/17 07:08:36;;;;;;;9.37;5.73;;;7.70;72.40;;;;;;5012667;28;20042;-70
2024/01/17 07:11:02;;;;;;;6.15;5.55;;;7.70;72.40;;;;;;4996100;28;20417;-70
2024/01/17 07:13:27;;;;;;;7.25;5.50;;;7.70;72.50;;;;;;4998965;28;20034;-70
2024/01/17 07:15:53;;;;;;;9.43;5.72;;;7.70;72.50;;;;;;4995167;28;20492;-70
2024/01/17 07:18:18;;;;;;;7.35;6.25;;;7.70;72.40;;;;;;5014344;28;20085;-70
2024/01/17 07:20:44;;;;;;;9.43;6.60;;;7.70;72.40;;;;;;5032380;28;20243;-70
2024/01/17 07:23:10;;;;;;;7.45;5.68;;;7.70;72.40;;;;;;5022151;28;20096;-70
2024/01/17 07:25:38;;;;;;;7.65;5.95;;;7.70;72.30;;;;;;4994190;28;20460;-70
2024/01/17 07:28:04;;;;;;;9.55;5.93;;;7.70;72.40;;;;;;5017431;28;20033;-70
2024/01/17 07:30:30;;;;;;;7.35;5.70;;;7.70;72.30;;;;;;5022541;28;20116;-71
2024/01/17 07:32:56;;;;;;;7.15;6.07;;;7.70;72.30;;;;;;5028953;28;20037;-71
2024/01/17 07:35:22;;;;;;;6.97;5.82;;;7.60;72.20;;;;;;5027676;28;20039;-71
2024/01/17 07:37:50;;;;;;;6.75;5.80;;;7.60;72.20;;;;;;5007345;28;20061;-71
2024/01/17 07:40:16;;;;;;;;;;;7.70;72.20;;;;;;5002793;28;20041;-71
2024/01/17 07:42:42;;;;;;;7.30;5.85;;;7.70;72.20;;;;;;5036114;28;19979;-71
2024/01/17 07:45:08;;;;;;;8.05;6.30;;;7.70;72.30;;;;;;5016290;28;20056;-71
2024/01/17 07:47:33;;;;;;;6.07;5.43;;;7.80;72.30;;;;;;5005088;28;20045;-70
2024/01/17 07:49:59;;;;;;;7.28;6.57;;;7.70;72.20;;;;;;5013976;28;20033;-71
2024/01/17 07:52:25;;;;;;;7.75;5.78;;;7.80;72.30;;;;;;4995774;28;20049;-71
2024/01/17 07:54:51;;;;;;;7.07;5.40;;;7.80;72.20;;;;;;5031060;28;20060;-70
2024/01/17 07:57:17;;;;;;;7.43;5.53;;;7.80;72.20;;;;;;5014064;28;20041;-70
2024/01/17 07:59:43;;;;;;;7.18;6.07;;;7.80;72.30;;;;;;4979972;28;20045;-70
2024/01/17 08:02:10;;;;;;;9.88;5.70;;;7.80;72.20;;;;;;4980128;28;20146;-69
2024/01/17 08:04:36;;;;;;;6.97;5.05;;;7.80;72.20;;;;;;5013491;28;20053;-69
2024/01/17 08:07:02;;;;;;;7.28;5.93;;;7.80;72.30;;;;;;5010622;28;20038;-69
2024/01/17 08:09:29;;;;;;;8.10;6.00;;;7.80;72.30;;;;;;5012124;28;20053;-69
2024/01/17 08:11:56;;;;;;;7.50;6.70;;;7.80;72.30;;;;;;5014016;28;20049;-69
2024/01/17 08:14:22;;;;;;;10.27;5.80;;;7.80;72.20;;;;;;5011088;28;20457;-69
2024/01/17 08:16:47;;;;;;;9.75;6.68;;;7.80;72.20;;;;;;5005615;28;20103;-69
2024/01/17 08:19:14;;;;;;;6.05;5.45;;;7.80;72.20;;;;;;4980490;28;20037;-69
2024/01/17 08:21:40;;;;;;;9.10;5.45;;;7.80;72.20;;;;;;5026851;28;20041;-69
2024/01/17 08:24:06;;;;;;;7.18;5.15;;;7.80;72.10;;;;;;5010933;28;20529;-70
2024/01/17 08:26:32;;;;;;;7.72;5.30;;;7.80;72.90;;;;;;5013595;28;20038;-69
2024/01/17 08:28:57;;;;;;;7.30;5.30;;;7.70;72.10;;;;;;5012524;28;20108;-69
2024/01/17 08:31:23;;;;;;;5.53;4.75;;;7.80;72.30;;;;;;5012089;28;20045;-69
2024/01/17 08:33:50;;;;;;;6.95;5.47;;;7.70;72.20;;;;;;5013546;28;20409;-69
2024/01/17 08:36:16;;;;;;;6.80;5.38;;;7.80;72.30;;;;;;5012618;28;20068;-70
2024/01/17 08:38:42;;;;;;;9.18;6.40;;;7.70;72.30;;;;;;5011402;28;20048;-69
2024/01/17 08:41:08;;;;;;;9.18;5.43;;;7.70;72.10;;;;;;5013515;28;20037;-69
2024/01/17 08:43:33;;;;;;;5.80;5.03;;;7.70;72.10;;;;;;5013916;28;20094;-70
2024/01/17 08:46:02;;;;;;;6.53;5.50;;;7.70;72.20;;;;;;5012639;28;20045;-69
2024/01/17 08:48:28;;;;;;;6.57;5.53;;;7.70;72.30;;;;;;5011051;28;20044;-69
2024/01/17 08:50:54;;;;;;;8.38;6.22;;;7.70;72.10;;;;;;5009995;28;20034;-69
2024/01/17 08:53:20;;;;;;;8.20;5.25;;;7.70;72.00;;;;;;4990417;28;20033;-69
2024/01/17 08:55:47;;;;;;;8.27;5.60;;;7.70;72.00;;;;;;5013917;28;20049;-69
2024/01/17 08:58:12;;;;;;;6.88;5.70;;;7.70;72.10;;;;;;4996627;28;20052;-70
2024/01/17 09:00:38;;;;;;;8.23;5.00;;;7.70;72.20;;;;;;5023195;28;20046;-70
2024/01/17 09:03:04;;;;;;;7.38;5.20;;;7.70;72.20;;;;;;5001735;28;20053;-70
2024/01/17 09:05:30;;;;;;;6.55;5.03;;;7.70;72.10;;;;;;5011835;28;20405;-70
2024/01/17 09:07:56;;;;;;;8.55;5.85;;;7.70;72.10;;;;;;5013373;28;20041;-70
2024/01/17 09:10:22;;;;;;;6.88;5.80;;;7.70;72.10;;;;;;4998077;28;20058;-70
2024/01/17 09:12:52;;;;;;;7.22;5.25;;;7.70;72.10;;;;;;4995938;28;20128;-70
2024/01/17 09:15:17;;;;;;;5.50;4.80;;;7.70;72.10;;;;;;5009195;28;20042;-70
2024/01/17 09:17:43;;;;;;;7.57;4.88;;;7.70;72.20;;;;;;5003025;28;20422;-70
2024/01/17 09:20:09;;;;;;;7.75;5.30;;;7.70;72.20;;;;;;5012422;28;20052;-69
2024/01/17 09:22:35;;;;;;;6.90;4.85;;;7.70;72.10;;;;;;5001722;28;20096;-69
2024/01/17 09:25:01;;;;;;;6.40;5.50;;;7.70;72.10;;;;;;4992349;28;20555;-70
2024/01/17 09:27:29;;;;;;;7.47;5.65;;;7.70;72.00;;;;;;5027207;28;20033;-70
2024/01/17 09:29:56;;;;;;;7.15;5.63;;;7.70;72.00;;;;;;5021927;28;20037;-70
2024/01/17 09:32:22;;;;;;;7.57;5.78;;;7.60;72.00;;;;;;5011513;28;20041;-69
2024/01/17 09:34:47;;;;;;;7.95;5.20;;;7.70;72.00;;;;;;5012753;28;20413;-70
2024/01/17 09:37:16;;;;;;;8.23;5.30;;;7.70;72.00;;;;;;5009420;28;20042;-70
2024/01/17 09:39:43;;;;;;;7.10;5.35;;;7.60;72.00;;;;;;5012261;28;20072;-70
2024/01/17 09:42:08;;;;;;;6.82;4.97;;;7.70;72.10;;;;;;4996016;28;20041;-69
2024/01/17 09:44:34;;;;;;;6.10;5.30;;;7.70;72.30;;;;;;5012619;28;20041;-70
2024/01/17 09:47:00;;;;;;;5.78;4.97;;;7.70;72.20;;;;;;4980634;28;20037;-70
2024/01/17 09:49:27;;;;;;;7.78;5.22;;;7.70;72.20;;;;;;4992648;28;20125;-70
2024/01/17 09:51:53;;;;;;;6.57;5.90;;;7.70;72.10;;;;;;5025875;28;20044;-69
2024/01/17 09:54:18;;;;;;;8.18;5.05;;;7.60;72.00;;;;;;4989711;28;20116;-69
2024/01/17 09:56:47;;;;;;;9.32;5.57;;;7.70;72.10;;;;;;5012240;28;20048;-70
2024/01/17 09:59:21;;;;;;;6.82;5.55;;;7.60;72.00;;;;;;5010641;28;20073;-69
2024/01/17 10:01:47;;;;;;;6.15;4.63;;;7.70;72.20;;;;;;5022635;28;20413;-70
2024/01/17 10:04:13;;;;;;;7.43;5.32;;;7.60;72.20;;;;;;4995591;28;20042;-70
2024/01/17 10:06:43;;;;;;;5.38;4.60;;;7.60;72.20;;;;;;5012555;28;20099;-70
2024/01/17 10:09:09;;;;;;;5.65;4.90;;;7.60;72.20;;;;;;5012247;28;20044;-70
2024/01/17 10:11:35;;;;;;;6.97;5.15;;;7.70;72.30;;;;;;5010178;28;20137;-70
2024/01/17 10:14:01;;;;;;;6.60;5.30;;;7.70;72.20;;;;;;5012436;28;20120;-69
2024/01/17 10:16:28;;;;;;;8.07;6.20;;;7.70;72.10;;;;;;5027413;28;20374;-69
2024/01/17 10:18:54;;;;;;;6.57;4.85;;;7.70;72.10;;;;;;5012443;28;20045;-69
2024/01/17 10:21:19;;;;;;;6.28;5.07;;;7.70;72.20;;;;;;5001504;28;20042;-69
2024/01/17 10:23:45;;;;;;;6.03;4.60;;;7.70;72.20;;;;;;5010690;28;20048;-69
2024/01/17 10:26:11;;;;;;;6.82;5.97;;;7.60;72.10;;;;;;5013858;28;20045;-70
2024/01/17 10:28:37;;;;;;;8.57;5.65;;;7.60;72.10;;;;;;5015217;28;20049;-70
2024/01/17 10:31:04;;;;;;;8.32;5.25;;;7.70;72.10;;;;;;5014711;28;20409;-70
2024/01/17 10:33:33;;;;;;;5.97;4.32;;;7.70;72.10;;;;;;5012176;28;20492;-70
2024/01/17 10:35:59;;;;;;;8.15;4.70;;;7.70;72.10;;;;;;5014526;28;20040;-69
2024/01/17 10:38:31;;;;;;;5.97;5.10;;;7.60;72.10;;;;;;5015632;28;20041;-70
2024/01/17 10:41:06;;;;;;;7.80;5.25;;;7.70;72.10;;;;;;5013932;28;20064;-70
2024/01/17 10:43:32;;;;;;;7.05;5.38;;;7.70;72.10;;;;;;5014721;28;20049;-70
2024/01/17 10:46:02;;;;;;;7.50;6.05;;;7.70;72.20;;;;;;5014756;28;20092;-70
2024/01/17 10:48:27;;;;;;;7.13;5.72;;;7.70;72.10;;;;;;5032460;28;20050;-70
2024/01/17 10:50:55;;;;;;;7.38;5.13;;;7.70;72.10;;;;;;4999252;28;20064;-70
2024/01/17 10:53:21;;;;;;;;;;;7.70;72.30;;;;;;5012505;28;20468;-70
2024/01/17 10:55:46;;;;;;;5.45;4.95;;;7.70;72.40;;;;;;5012836;28;19924;-70
2024/01/17 10:58:13;;;;;;;6.60;5.53;;;7.70;72.20;;;;;;5015812;28;20056;-70
2024/01/17 11:00:42;;;;;;;5.80;4.68;;;7.70;72.20;;;;;;5013854;28;20042;-70
2024/01/17 11:03:18;;;;;;;6.65;5.60;;;7.70;72.30;;;;;;4998384;28;20045;-70
2024/01/17 11:05:51;;;;;;;6.50;5.03;;;7.70;72.30;;;;;;5028435;28;20508;-70
2024/01/17 11:08:17;;;;;;;7.28;5.78;;;7.70;72.40;;;;;;5015683;28;20038;-70
2024/01/17 11:10:43;;;;;;;6.57;5.22;;;7.70;72.30;;;;;;5029460;28;20076;-70
2024/01/17 11:13:14;;;;;;;6.38;5.78;;;7.70;72.30;;;;;;5015590;28;20045;-70
2024/01/17 11:15:41;;;;;;;7.15;5.43;;;7.70;72.20;;;;;;5013197;28;20045;-70
2024/01/17 11:18:07;;;;;;;5.15;4.43;;;7.70;72.30;;;;;;5012430;28;20054;-70
2024/01/17 11:20:32;;;;;;;5.88;4.95;;;7.70;72.30;;;;;;4979551;28;20438;-70
2024/01/17 11:23:01;;;;;;;6.25;4.93;;;7.70;72.20;;;;;;5015338;28;20292;-70
2024/01/17 11:25:36;;;;;;;7.85;5.35;;;7.70;72.20;;;;;;5012250;28;20042;-70
2024/01/17 11:28:20;;;;;;;7.30;5.55;;;7.70;72.20;;;;;;5014418;28;20045;-70
2024/01/17 11:30:59;;;;;;;10.95;5.35;;;7.70;72.20;;;;;;4995847;28;20111;-70
2024/01/17 11:33:30;;;;;;;6.85;5.25;;;7.70;72.10;;;;;;5005054;28;20132;-70
2024/01/17 11:35:55;;;;;;;5.90;4.93;;;7.70;72.20;;;;;;5014270;28;20045;-70
2024/01/17 11:38:24;;;;;;;6.25;4.75;;;7.70;72.20;;;;;;5012904;28;20033;-70
2024/01/17 11:40:53;;;;;;;8.02;5.05;;;7.70;72.20;;;;;;5010970;28;20107;-70
2024/01/17 11:43:22;;;;;;;7.80;5.85;;;7.70;72.30;;;;;;5010303;28;20045;-70
2024/01/17 11:45:50;;;;;;;5.30;4.80;;;7.70;72.20;;;;;;4997579;28;20037;-70
2024/01/17 11:48:25;;;;;;;7.50;5.88;;;7.70;72.30;;;;;;5014208;28;20041;-70
2024/01/17 11:51:14;;;;;;;6.30;5.22;;;7.70;72.30;;;;;;5007438;28;20038;-70
2024/01/17 11:53:51;;;;;;;6.38;4.80;;;7.70;72.30;;;;;;5029049;28;20456;-70
2024/01/17 11:56:20;;;;;;;7.22;4.72;;;7.70;72.30;;;;;;4991408;28;20416;-70
2024/01/17 11:58:58;;;;;;;8.40;6.43;;;7.70;72.30;;;;;;4997372;28;20049;-69
2024/01/17 12:01:36;;;;;;;6.47;5.53;;;7.70;72.20;;;;;;5013943;28;20042;-70
2024/01/17 12:04:15;;;;;;;5.47;4.40;;;7.70;72.20;;;;;;5011097;28;20037;-70
2024/01/17 12:06:41;;;;;;;6.75;5.18;;;7.70;72.30;;;;;;5011264;28;20281;-70
2024/01/17 12:09:15;;;;;;;5.70;5.20;;;7.70;72.30;;;;;;5016342;28;20374;-70
2024/01/17 12:11:42;;;;;;;6.57;5.13;;;7.70;72.30;;;;;;5014921;28;20204;-70
2024/01/17 12:14:07;;;;;;;6.53;4.85;;;7.70;72.30;;;;;;5020031;28;20396;-69
2024/01/17 12:16:33;;;;;;;6.65;5.45;;;7.70;72.30;;;;;;4997617;28;20030;-69
2024/01/17 12:18:59;;;;;;;9.93;5.57;;;7.70;72.20;;;;;;5014469;28;20095;-69
2024/01/17 12:21:25;;;;;;;6.93;4.65;;;7.70;72.30;;;;;;4997509;28;20397;-69
2024/01/17 12:23:51;;;;;;;6.45;4.93;;;7.80;72.30;;;;;;5010768;28;20142;-69
2024/01/17 12:26:16;;;;;;;6.60;5.50;;;7.80;72.30;;;;;;5009574;28;20037;-69
2024/01/17 12:28:42;;;;;;;7.30;5.55;;;7.70;72.30;;;;;;5014250;28;20377;-69
2024/01/17 12:31:08;;;;;;;6.13;4.53;;;7.80;72.30;;;;;;5013570;28;20037;-69
2024/01/17 12:33:37;;;;;;;6.70;5.53;;;7.70;72.30;;;;;;5013841;28;20049;-69
2024/01/17 12:36:04;;;;;;;8.98;5.90;;;7.80;72.30;;;;;;5013598;28;20402;-69
2024/01/17 12:38:30;;;;;;;5.78;5.15;;;7.70;72.20;;;;;;5014017;28;20057;-69
2024/01/17 12:40:57;;;;;;;7.15;5.15;;;7.70;72.30;;;;;;5018843;28;20328;-69
2024/01/17 12:43:23;;;;;;;9.07;5.70;;;7.70;72.30;;;;;;5010541;28;20402;-70
2024/01/17 12:45:48;;;;;;;7.68;5.53;;;7.80;72.30;;;;;;5006305;28;20046;-69
2024/01/17 12:48:14;;;;;;;6.88;5.35;;;7.80;72.30;;;;;;4997537;28;20116;-69
2024/01/17 12:50:48;;;;;;;6.88;5.53;;;7.80;72.40;;;;;;5013115;28;20038;-69
2024/01/17 12:53:17;;;;;;;8.45;5.65;;;7.70;72.30;;;;;;5009939;28;20111;-69